sensor_id;sensor_type;location;lat;lon;timestamp;temperature;humidity
48019;DHT22;33786;48.690;9.562;2023-02-28T00:00:38;-2.00;94.70
48019;DHT22;33786;48.690;9.562;2023-02-28T00:03:05;-1.90;94.80
48019;DHT22;33786;48.690;9.562;2023-02-28T00:05:32;-2.00;94.90
48019;DHT22;33786;48.690;9.562;2023-02-28T00:07:59;-1.90;94.90
48019;DHT22;33786;48.690;9.562;2023-02-28T00:10:27;-1.90;94.90
48019;DHT22;33786;48.690;9.562;2023-02-28T00:12:54;-1.90;95.00
48019;DHT22;33786;48.690;9.562;2023-02-28T00:15:23;-1.90;95.10
48019;DHT22;33786;48.690;9.562;2023-02-28T00:17:50;-1.90;95.10
48019;DHT22;33786;48.690;9.562;2023-02-28T00:20:17;-2.00;95.20
48019;DHT22;33786;48.690;9.562;2023-02-28T00:22:45;-1.90;95.10
48019;DHT22;33786;48.690;9.562;2023-02-28T00:25:13;-1.90;95.30
48019;DHT22;33786;48.690;9.562;2023-02-28T00:27:40;-1.90;95.20
48019;DHT22;33786;48.690;9.562;2023-02-28T00:30:08;-1.90;95.20
48019;DHT22;33786;48.690;9.562;2023-02-28T00:32:35;-1.90;95.20
48019;DHT22;33786;48.690;9.562;2023-02-28T00:35:02;-1.80;95.30
48019;DHT22;33786;48.690;9.562;2023-02-28T00:37:30;-1.80;95.20
48019;DHT22;33786;48.690;9.562;2023-02-28T00:39:57;-1.90;95.30
48019;DHT22;33786;48.690;9.562;2023-02-28T00:42:24;-1.80;95.40
48019;DHT22;33786;48.690;9.562;2023-02-28T00:44:50;-1.70;95.20
48019;DHT22;33786;48.690;9.562;2023-02-28T00:47:17;-1.70;95.30
48019;DHT22;33786;48.690;9.562;2023-02-28T00:49:44;-1.80;95.40
48019;DHT22;33786;48.690;9.562;2023-02-28T00:52:10;-1.70;95.40
48019;DHT22;33786;48.690;9.562;2023-02-28T00:54:37;-1.70;95.40
48019;DHT22;33786;48.690;9.562;2023-02-28T00:57:04;-1.80;95.30
48019;DHT22;33786;48.690;9.562;2023-02-28T00:59:30;-1.70;95.40
48019;DHT22;33786;48.690;9.562;2023-02-28T01:01:57;-1.70;95.50
48019;DHT22;33786;48.690;9.562;2023-02-28T01:04:24;-1.60;95.50
48019;DHT22;33786;48.690;9.562;2023-02-28T01:06:51;-1.70;95.70
48019;DHT22;33786;48.690;9.562;2023-02-28T01:09:18;-1.80;96.10
48019;DHT22;33786;48.690;9.562;2023-02-28T01:11:44;-1.70;95.80
48019;DHT22;33786;48.690;9.562;2023-02-28T01:14:12;-1.70;96.10
48019;DHT22;33786;48.690;9.562;2023-02-28T01:16:39;-1.70;96.10
48019;DHT22;33786;48.690;9.562;2023-02-28T01:19:05;-1.80;96.30
48019;DHT22;33786;48.690;9.562;2023-02-28T01:21:32;-1.80;96.50
48019;DHT22;33786;48.690;9.562;2023-02-28T01:23:59;-1.80;96.60
48019;DHT22;33786;48.690;9.562;2023-02-28T01:26:26;-1.80;96.70
48019;DHT22;33786;48.690;9.562;2023-02-28T01:28:52;-1.80;96.70
48019;DHT22;33786;48.690;9.562;2023-02-28T01:31:19;-1.80;96.80
48019;DHT22;33786;48.690;9.562;2023-02-28T01:33:47;-1.80;97.00
48019;DHT22;33786;48.690;9.562;2023-02-28T01:36:15;-1.80;97.00
48019;DHT22;33786;48.690;9.562;2023-02-28T01:38:42;-1.80;97.10
48019;DHT22;33786;48.690;9.562;2023-02-28T01:41:09;-1.80;97.30
48019;DHT22;33786;48.690;9.562;2023-02-28T01:46:08;-1.80;97.40
48019;DHT22;33786;48.690;9.562;2023-02-28T01:48:36;-1.80;97.40
48019;DHT22;33786;48.690;9.562;2023-02-28T01:51:06;-1.80;97.50
48019;DHT22;33786;48.690;9.562;2023-02-28T01:53:37;-1.80;97.60
48019;DHT22;33786;48.690;9.562;2023-02-28T01:56:05;-1.80;97.90
48019;DHT22;33786;48.690;9.562;2023-02-28T01:58:33;-1.90;97.90
48019;DHT22;33786;48.690;9.562;2023-02-28T02:01:00;-1.90;98.00
48019;DHT22;33786;48.690;9.562;2023-02-28T02:03:29;-1.90;98.20
48019;DHT22;33786;48.690;9.562;2023-02-28T02:05:56;-1.90;98.40
48019;DHT22;33786;48.690;9.562;2023-02-28T02:08:24;-1.90;98.30
48019;DHT22;33786;48.690;9.562;2023-02-28T02:10:52;-1.90;98.40
48019;DHT22;33786;48.690;9.562;2023-02-28T02:36:42;-1.90;99.50
48019;DHT22;33786;48.690;9.562;2023-02-28T02:39:19;-1.90;99.70
48019;DHT22;33786;48.690;9.562;2023-02-28T02:41:51;-1.90;99.80
48019;DHT22;33786;48.690;9.562;2023-02-28T02:44:22;-1.90;99.90
48019;DHT22;33786;48.690;9.562;2023-02-28T02:46:51;-1.90;99.90
48019;DHT22;33786;48.690;9.562;2023-02-28T02:49:26;-2.00;99.90
48019;DHT22;33786;48.690;9.562;2023-02-28T02:51:54;-1.90;99.90
48019;DHT22;33786;48.690;9.562;2023-02-28T02:54:23;-1.90;99.90
48019;DHT22;33786;48.690;9.562;2023-02-28T02:56:56;-2.00;99.90
48019;DHT22;33786;48.690;9.562;2023-02-28T02:59:23;-1.90;99.90
48019;DHT22;33786;48.690;9.562;2023-02-28T03:01:55;-1.90;99.90
48019;DHT22;33786;48.690;9.562;2023-02-28T03:04:24;-2.00;99.90
48019;DHT22;33786;48.690;9.562;2023-02-28T03:06:51;-1.90;99.90
48019;DHT22;33786;48.690;9.562;2023-02-28T03:09:21;-2.00;99.90
48019;DHT22;33786;48.690;9.562;2023-02-28T03:11:48;-2.00;99.90
48019;DHT22;33786;48.690;9.562;2023-02-28T03:14:25;-1.90;99.90
48019;DHT22;33786;48.690;9.562;2023-02-28T03:22:14;-1.90;99.90
48019;DHT22;33786;48.690;9.562;2023-02-28T03:27:15;-1.90;99.90
48019;DHT22;33786;48.690;9.562;2023-02-28T03:29:46;-1.90;99.90
48019;DHT22;33786;48.690;9.562;2023-02-28T03:32:16;-1.90;99.90
48019;DHT22;33786;48.690;9.562;2023-02-28T03:34:49;-1.90;99.90
48019;DHT22;33786;48.690;9.562;2023-02-28T03:37:19;-1.90;99.90
48019;DHT22;33786;48.690;9.562;2023-02-28T03:39:49;-1.90;99.90
48019;DHT22;33786;48.690;9.562;2023-02-28T03:42:18;-1.90;99.90
48019;DHT22;33786;48.690;9.562;2023-02-28T03:47:21;-1.90;99.90
48019;DHT22;33786;48.690;9.562;2023-02-28T03:49:51;-1.90;99.90
48019;DHT22;33786;48.690;9.562;2023-02-28T03:52:20;-1.90;99.90
48019;DHT22;33786;48.690;9.562;2023-02-28T03:54:50;-1.90;99.90
48019;DHT22;33786;48.690;9.562;2023-02-28T03:57:27;-1.90;99.90
48019;DHT22;33786;48.690;9.562;2023-02-28T04:02:57;-1.90;99.90
48019;DHT22;33786;48.690;9.562;2023-02-28T04:05:24;-1.90;99.90
48019;DHT22;33786;48.690;9.562;2023-02-28T04:07:51;-1.90;99.90
48019;DHT22;33786;48.690;9.562;2023-02-28T04:10:17;-1.80;99.90
48019;DHT22;33786;48.690;9.562;2023-02-28T04:12:44;-1.90;99.90
48019;DHT22;33786;48.690;9.562;2023-02-28T04:15:11;-1.90;99.90
48019;DHT22;33786;48.690;9.562;2023-02-28T04:17:37;-1.80;99.90
48019;DHT22;33786;48.690;9.562;2023-02-28T04:20:04;-1.80;99.90
48019;DHT22;33786;48.690;9.562;2023-02-28T04:22:36;-1.80;99.90
48019;DHT22;33786;48.690;9.562;2023-02-28T04:25:03;-1.80;99.90
48019;DHT22;33786;48.690;9.562;2023-02-28T04:27:32;-1.90;99.90
48019;DHT22;33786;48.690;9.562;2023-02-28T04:29:58;-1.80;99.90
48019;DHT22;33786;48.690;9.562;2023-02-28T04:32:25;-1.80;99.90
48019;DHT22;33786;48.690;9.562;2023-02-28T04:34:52;-1.80;99.90
48019;DHT22;33786;48.690;9.562;2023-02-28T04:37:19;-1.90;99.90
48019;DHT22;33786;48.690;9.562;2023-02-28T04:39:46;-1.80;99.90
48019;DHT22;33786;48.690;9.562;2023-02-28T04:42:13;-1.80;99.90
48019;DHT22;33786;48.690;9.562;2023-02-28T04:44:40;-1.80;99.90
48019;DHT22;33786;48.690;9.562;2023-02-28T04:47:07;-1.80;99.90
48019;DHT22;33786;48.690;9.562;2023-02-28T04:49:33;-1.80;99.90
48019;DHT22;33786;48.690;9.562;2023-02-28T04:52:00;-1.80;99.90
48019;DHT22;33786;48.690;9.562;2023-02-28T04:54:27;-1.70;99.90
48019;DHT22;33786;48.690;9.562;2023-02-28T04:56:54;-1.70;99.90
48019;DHT22;33786;48.690;9.562;2023-02-28T04:59:21;-1.70;99.90
48019;DHT22;33786;48.690;9.562;2023-02-28T05:01:48;-1.70;99.90
48019;DHT22;33786;48.690;9.562;2023-02-28T05:04:15;-1.60;99.90
48019;DHT22;33786;48.690;9.562;2023-02-28T05:06:42;-1.60;99.90
48019;DHT22;33786;48.690;9.562;2023-02-28T05:09:09;-1.70;99.90
48019;DHT22;33786;48.690;9.562;2023-02-28T05:11:38;-1.60;99.90
48019;DHT22;33786;48.690;9.562;2023-02-28T05:14:14;-1.60;99.90
48019;DHT22;33786;48.690;9.562;2023-02-28T05:16:41;-1.60;99.90
48019;DHT22;33786;48.690;9.562;2023-02-28T05:19:08;-1.30;99.90
48019;DHT22;33786;48.690;9.562;2023-02-28T05:21:35;-1.60;99.90
48019;DHT22;33786;48.690;9.562;2023-02-28T05:24:04;-1.60;99.90
48019;DHT22;33786;48.690;9.562;2023-02-28T05:26:33;-1.60;99.90
48019;DHT22;33786;48.690;9.562;2023-02-28T05:29:00;-1.60;99.90
48019;DHT22;33786;48.690;9.562;2023-02-28T05:31:27;-1.70;99.90
48019;DHT22;33786;48.690;9.562;2023-02-28T05:33:54;-1.60;99.90
48019;DHT22;33786;48.690;9.562;2023-02-28T05:36:21;-1.60;99.90
48019;DHT22;33786;48.690;9.562;2023-02-28T05:38:48;-1.60;99.90
48019;DHT22;33786;48.690;9.562;2023-02-28T05:41:15;-1.70;99.90
48019;DHT22;33786;48.690;9.562;2023-02-28T05:43:42;-1.70;99.90
48019;DHT22;33786;48.690;9.562;2023-02-28T05:46:09;-1.60;99.90
48019;DHT22;33786;48.690;9.562;2023-02-28T05:48:37;-1.70;99.90
48019;DHT22;33786;48.690;9.562;2023-02-28T05:51:04;-1.70;99.90
48019;DHT22;33786;48.690;9.562;2023-02-28T05:53:31;-1.60;99.90
48019;DHT22;33786;48.690;9.562;2023-02-28T05:55:58;-1.60;99.90
48019;DHT22;33786;48.690;9.562;2023-02-28T05:58:25;-1.60;99.90
48019;DHT22;33786;48.690;9.562;2023-02-28T06:00:56;-1.60;99.90
48019;DHT22;33786;48.690;9.562;2023-02-28T06:03:22;-1.50;99.90
48019;DHT22;33786;48.690;9.562;2023-02-28T06:05:49;-1.50;99.90
48019;DHT22;33786;48.690;9.562;2023-02-28T06:08:17;-1.50;99.90
48019;DHT22;33786;48.690;9.562;2023-02-28T06:10:44;-1.50;99.90
48019;DHT22;33786;48.690;9.562;2023-02-28T06:13:11;-1.50;99.90
48019;DHT22;33786;48.690;9.562;2023-02-28T06:15:39;-1.60;99.90
48019;DHT22;33786;48.690;9.562;2023-02-28T06:18:06;-1.60;99.90
48019;DHT22;33786;48.690;9.562;2023-02-28T06:20:32;-1.60;99.90
48019;DHT22;33786;48.690;9.562;2023-02-28T06:22:59;-1.50;99.90
48019;DHT22;33786;48.690;9.562;2023-02-28T06:25:27;-1.60;99.90
48019;DHT22;33786;48.690;9.562;2023-02-28T06:27:54;-1.50;99.90
48019;DHT22;33786;48.690;9.562;2023-02-28T06:30:21;-1.50;99.90
48019;DHT22;33786;48.690;9.562;2023-02-28T06:32:53;-1.50;99.90
48019;DHT22;33786;48.690;9.562;2023-02-28T06:35:20;-1.50;99.90
48019;DHT22;33786;48.690;9.562;2023-02-28T06:37:47;-1.50;99.90
48019;DHT22;33786;48.690;9.562;2023-02-28T06:40:14;-1.50;99.90
48019;DHT22;33786;48.690;9.562;2023-02-28T06:42:40;-1.40;99.90
48019;DHT22;33786;48.690;9.562;2023-02-28T06:45:07;-1.40;99.90
48019;DHT22;33786;48.690;9.562;2023-02-28T06:47:36;-1.40;99.90
48019;DHT22;33786;48.690;9.562;2023-02-28T06:50:03;-1.30;99.90
48019;DHT22;33786;48.690;9.562;2023-02-28T06:52:31;-1.30;99.90
48019;DHT22;33786;48.690;9.562;2023-02-28T06:54:57;-1.20;99.90
48019;DHT22;33786;48.690;9.562;2023-02-28T06:57:28;-1.20;99.90
48019;DHT22;33786;48.690;9.562;2023-02-28T07:00:00;-1.20;99.90
48019;DHT22;33786;48.690;9.562;2023-02-28T07:02:27;-1.20;99.90
48019;DHT22;33786;48.690;9.562;2023-02-28T07:04:54;-1.20;99.90
48019;DHT22;33786;48.690;9.562;2023-02-28T07:07:21;-1.10;99.90
48019;DHT22;33786;48.690;9.562;2023-02-28T07:09:47;-1.10;99.90
48019;DHT22;33786;48.690;9.562;2023-02-28T07:12:14;-1.10;99.90
48019;DHT22;33786;48.690;9.562;2023-02-28T07:14:41;-1.10;99.90
48019;DHT22;33786;48.690;9.562;2023-02-28T07:17:08;-1.10;99.90
48019;DHT22;33786;48.690;9.562;2023-02-28T07:19:35;-1.00;99.80
48019;DHT22;33786;48.690;9.562;2023-02-28T07:22:01;-1.00;99.50
48019;DHT22;33786;48.690;9.562;2023-02-28T07:24:29;-0.90;98.90
48019;DHT22;33786;48.690;9.562;2023-02-28T07:26:56;-0.90;99.00
48019;DHT22;33786;48.690;9.562;2023-02-28T07:29:23;-0.90;98.70
48019;DHT22;33786;48.690;9.562;2023-02-28T07:31:49;-0.90;99.00
48019;DHT22;33786;48.690;9.562;2023-02-28T07:34:20;-0.90;98.60
48019;DHT22;33786;48.690;9.562;2023-02-28T07:36:46;-0.90;98.50
48019;DHT22;33786;48.690;9.562;2023-02-28T07:39:13;-1.00;98.70
48019;DHT22;33786;48.690;9.562;2023-02-28T07:41:40;-0.90;98.50
48019;DHT22;33786;48.690;9.562;2023-02-28T07:44:10;-0.90;98.40
48019;DHT22;33786;48.690;9.562;2023-02-28T07:46:37;-0.80;98.50
48019;DHT22;33786;48.690;9.562;2023-02-28T07:49:04;-0.80;98.50
48019;DHT22;33786;48.690;9.562;2023-02-28T07:51:31;-0.80;98.30
48019;DHT22;33786;48.690;9.562;2023-02-28T07:53:58;-0.80;98.40
48019;DHT22;33786;48.690;9.562;2023-02-28T07:56:25;-0.80;98.40
48019;DHT22;33786;48.690;9.562;2023-02-28T07:58:52;-0.80;98.20
48019;DHT22;33786;48.690;9.562;2023-02-28T08:01:19;-0.90;98.00
48019;DHT22;33786;48.690;9.562;2023-02-28T08:03:46;-0.80;97.90
48019;DHT22;33786;48.690;9.562;2023-02-28T08:06:20;-0.80;98.30
48019;DHT22;33786;48.690;9.562;2023-02-28T08:08:47;-0.70;97.90
48019;DHT22;33786;48.690;9.562;2023-02-28T08:11:14;-0.70;97.70
48019;DHT22;33786;48.690;9.562;2023-02-28T08:13:42;-0.60;98.00
48019;DHT22;33786;48.690;9.562;2023-02-28T08:16:11;-0.50;97.40
48019;DHT22;33786;48.690;9.562;2023-02-28T08:18:38;-0.60;97.30
48019;DHT22;33786;48.690;9.562;2023-02-28T08:21:08;-0.60;97.50
48019;DHT22;33786;48.690;9.562;2023-02-28T08:23:35;-0.60;97.70
48019;DHT22;33786;48.690;9.562;2023-02-28T08:26:02;-0.60;97.20
48019;DHT22;33786;48.690;9.562;2023-02-28T08:28:29;-0.50;97.50
48019;DHT22;33786;48.690;9.562;2023-02-28T08:30:56;-0.50;97.60
48019;DHT22;33786;48.690;9.562;2023-02-28T08:33:24;-0.40;97.10
48019;DHT22;33786;48.690;9.562;2023-02-28T08:35:54;-0.50;97.00
48019;DHT22;33786;48.690;9.562;2023-02-28T08:38:21;-0.50;97.20
48019;DHT22;33786;48.690;9.562;2023-02-28T08:40:48;-0.50;97.20
48019;DHT22;33786;48.690;9.562;2023-02-28T08:43:15;-0.40;97.00
48019;DHT22;33786;48.690;9.562;2023-02-28T08:45:42;-0.30;97.00
48019;DHT22;33786;48.690;9.562;2023-02-28T08:48:09;-0.20;97.00
48019;DHT22;33786;48.690;9.562;2023-02-28T08:50:36;-0.20;96.60
48019;DHT22;33786;48.690;9.562;2023-02-28T08:53:03;-0.10;96.40
48019;DHT22;33786;48.690;9.562;2023-02-28T08:55:29;-0.10;96.30
48019;DHT22;33786;48.690;9.562;2023-02-28T08:57:56;-0.10;96.30
48019;DHT22;33786;48.690;9.562;2023-02-28T09:00:23;-0.10;96.50
48019;DHT22;33786;48.690;9.562;2023-02-28T09:02:50;-0.20;96.30
48019;DHT22;33786;48.690;9.562;2023-02-28T09:05:16;-0.10;96.10
48019;DHT22;33786;48.690;9.562;2023-02-28T09:07:45;-0.10;96.10
48019;DHT22;33786;48.690;9.562;2023-02-28T09:10:11;0.00;96.00
48019;DHT22;33786;48.690;9.562;2023-02-28T09:12:38;0.10;96.00
48019;DHT22;33786;48.690;9.562;2023-02-28T09:15:05;0.00;95.70
48019;DHT22;33786;48.690;9.562;2023-02-28T09:17:32;0.00;95.90
48019;DHT22;33786;48.690;9.562;2023-02-28T09:19:59;0.10;95.60
48019;DHT22;33786;48.690;9.562;2023-02-28T09:22:26;0.20;95.60
48019;DHT22;33786;48.690;9.562;2023-02-28T09:24:52;0.30;95.60
48019;DHT22;33786;48.690;9.562;2023-02-28T09:27:19;0.40;95.20
48019;DHT22;33786;48.690;9.562;2023-02-28T09:29:46;0.40;95.30
48019;DHT22;33786;48.690;9.562;2023-02-28T09:32:12;0.50;95.00
48019;DHT22;33786;48.690;9.562;2023-02-28T09:34:39;0.50;95.00
48019;DHT22;33786;48.690;9.562;2023-02-28T09:37:06;0.70;94.90
48019;DHT22;33786;48.690;9.562;2023-02-28T09:39:33;0.80;94.50
48019;DHT22;33786;48.690;9.562;2023-02-28T09:41:59;0.80;94.40
48019;DHT22;33786;48.690;9.562;2023-02-28T09:46:57;0.60;94.60
48019;DHT22;33786;48.690;9.562;2023-02-28T09:49:28;0.50;95.00
48019;DHT22;33786;48.690;9.562;2023-02-28T09:52:02;0.70;94.50
48019;DHT22;33786;48.690;9.562;2023-02-28T09:54:31;0.90;94.50
48019;DHT22;33786;48.690;9.562;2023-02-28T10:07:16;1.50;94.00
48019;DHT22;33786;48.690;9.562;2023-02-28T10:09:47;1.40;93.80
48019;DHT22;33786;48.690;9.562;2023-02-28T10:12:17;1.10;93.80
48019;DHT22;33786;48.690;9.562;2023-02-28T10:14:45;1.10;94.10
48019;DHT22;33786;48.690;9.562;2023-02-28T10:20:02;1.30;93.70
48019;DHT22;33786;48.690;9.562;2023-02-28T10:25:19;1.30;93.80
48019;DHT22;33786;48.690;9.562;2023-02-28T10:27:46;1.50;93.40
48019;DHT22;33786;48.690;9.562;2023-02-28T10:30:13;1.90;92.90
48019;DHT22;33786;48.690;9.562;2023-02-28T10:32:49;2.00;92.80
48019;DHT22;33786;48.690;9.562;2023-02-28T10:37:45;2.30;92.20
48019;DHT22;33786;48.690;9.562;2023-02-28T10:45:23;3.40;90.10
48019;DHT22;33786;48.690;9.562;2023-02-28T10:47:57;3.40;90.30
48019;DHT22;33786;48.690;9.562;2023-02-28T10:56:01;6.00;81.20
48019;DHT22;33786;48.690;9.562;2023-02-28T11:01:16;7.40;78.90
48019;DHT22;33786;48.690;9.562;2023-02-28T11:03:44;8.30;76.30
48019;DHT22;33786;48.690;9.562;2023-02-28T11:06:20;9.20;75.40
48019;DHT22;33786;48.690;9.562;2023-02-28T11:11:18;8.50;72.40
48019;DHT22;33786;48.690;9.562;2023-02-28T11:13:45;8.70;72.50
48019;DHT22;33786;48.690;9.562;2023-02-28T11:16:13;8.60;72.50
48019;DHT22;33786;48.690;9.562;2023-02-28T11:18:52;7.90;72.80
48019;DHT22;33786;48.690;9.562;2023-02-28T11:21:26;7.60;74.20
48019;DHT22;33786;48.690;9.562;2023-02-28T11:24:05;7.60;75.60
48019;DHT22;33786;48.690;9.562;2023-02-28T11:26:51;7.20;75.60
48019;DHT22;33786;48.690;9.562;2023-02-28T11:29:25;7.70;74.90
48019;DHT22;33786;48.690;9.562;2023-02-28T11:34:28;7.90;72.60
48019;DHT22;33786;48.690;9.562;2023-02-28T11:36:55;8.40;70.70
48019;DHT22;33786;48.690;9.562;2023-02-28T11:39:23;6.90;73.80
48019;DHT22;33786;48.690;9.562;2023-02-28T11:45:02;5.50;78.10
48019;DHT22;33786;48.690;9.562;2023-02-28T11:47:43;5.20;80.10
48019;DHT22;33786;48.690;9.562;2023-02-28T11:52:58;6.30;77.00
48019;DHT22;33786;48.690;9.562;2023-02-28T11:55:39;6.80;76.60
48019;DHT22;33786;48.690;9.562;2023-02-28T12:08:53;7.00;76.90
48019;DHT22;33786;48.690;9.562;2023-02-28T12:11:34;7.60;74.80
48019;DHT22;33786;48.690;9.562;2023-02-28T12:15:05;8.40;74.10
48019;DHT22;33786;48.690;9.562;2023-02-28T12:27:08;5.80;79.40
48019;DHT22;33786;48.690;9.562;2023-02-28T12:29:53;5.50;79.90
48019;DHT22;33786;48.690;9.562;2023-02-28T12:32:32;5.50;79.40
48019;DHT22;33786;48.690;9.562;2023-02-28T12:35:04;5.80;79.30
48019;DHT22;33786;48.690;9.562;2023-02-28T12:40:11;5.70;80.30
48019;DHT22;33786;48.690;9.562;2023-02-28T12:42:42;5.80;80.10
48019;DHT22;33786;48.690;9.562;2023-02-28T12:47:38;5.90;80.40
48019;DHT22;33786;48.690;9.562;2023-02-28T12:50:07;6.50;78.50
48019;DHT22;33786;48.690;9.562;2023-02-28T12:58:05;6.70;78.10
48019;DHT22;33786;48.690;9.562;2023-02-28T13:00:25;6.40;77.20
48019;DHT22;33786;48.690;9.562;2023-02-28T13:05:50;6.10;78.60
48019;DHT22;33786;48.690;9.562;2023-02-28T13:08:31;6.20;79.80
48019;DHT22;33786;48.690;9.562;2023-02-28T13:11:05;6.10;78.00
48019;DHT22;33786;48.690;9.562;2023-02-28T13:13:45;6.30;78.50
48019;DHT22;33786;48.690;9.562;2023-02-28T13:16:11;6.40;77.90
48019;DHT22;33786;48.690;9.562;2023-02-28T13:21:09;6.20;77.30
48019;DHT22;33786;48.690;9.562;2023-02-28T13:26:18;6.30;78.70
48019;DHT22;33786;48.690;9.562;2023-02-28T13:31:14;6.20;77.90
48019;DHT22;33786;48.690;9.562;2023-02-28T13:38:41;5.90;78.80
48019;DHT22;33786;48.690;9.562;2023-02-28T13:43:59;5.70;78.60
48019;DHT22;33786;48.690;9.562;2023-02-28T13:46:28;5.60;78.70
48019;DHT22;33786;48.690;9.562;2023-02-28T13:48:56;5.50;79.60
48019;DHT22;33786;48.690;9.562;2023-02-28T13:54:15;5.70;79.30
48019;DHT22;33786;48.690;9.562;2023-02-28T13:59:29;5.80;78.90
48019;DHT22;33786;48.690;9.562;2023-02-28T14:07:21;5.60;79.60
48019;DHT22;33786;48.690;9.562;2023-02-28T14:09:52;5.60;80.30
48019;DHT22;33786;48.690;9.562;2023-02-28T14:15:26;5.40;79.80
48019;DHT22;33786;48.690;9.562;2023-02-28T14:17:54;5.10;80.60
48019;DHT22;33786;48.690;9.562;2023-02-28T14:20:22;5.10;80.00
48019;DHT22;33786;48.690;9.562;2023-02-28T14:22:54;5.20;80.70
48019;DHT22;33786;48.690;9.562;2023-02-28T14:25:40;5.30;79.90
48019;DHT22;33786;48.690;9.562;2023-02-28T14:31:04;5.10;81.00
48019;DHT22;33786;48.690;9.562;2023-02-28T14:33:42;5.00;80.40
48019;DHT22;33786;48.690;9.562;2023-02-28T14:36:13;5.10;81.40
48019;DHT22;33786;48.690;9.562;2023-02-28T14:41:18;5.10;81.40
48019;DHT22;33786;48.690;9.562;2023-02-28T14:43:48;5.10;81.70
48019;DHT22;33786;48.690;9.562;2023-02-28T14:46:14;5.20;81.80
48019;DHT22;33786;48.690;9.562;2023-02-28T14:48:45;5.10;81.60
48019;DHT22;33786;48.690;9.562;2023-02-28T14:51:12;5.00;81.70
48019;DHT22;33786;48.690;9.562;2023-02-28T14:53:44;5.10;82.00
48019;DHT22;33786;48.690;9.562;2023-02-28T14:56:24;5.00;81.80
48019;DHT22;33786;48.690;9.562;2023-02-28T14:58:53;5.00;81.60
48019;DHT22;33786;48.690;9.562;2023-02-28T15:01:21;5.00;82.00
48019;DHT22;33786;48.690;9.562;2023-02-28T15:03:49;5.00;82.20
48019;DHT22;33786;48.690;9.562;2023-02-28T15:06:23;4.90;82.30
48019;DHT22;33786;48.690;9.562;2023-02-28T15:09:09;5.00;82.20
48019;DHT22;33786;48.690;9.562;2023-02-28T15:11:37;5.00;82.60
48019;DHT22;33786;48.690;9.562;2023-02-28T15:14:05;4.90;82.40
48019;DHT22;33786;48.690;9.562;2023-02-28T15:16:33;4.90;82.50
48019;DHT22;33786;48.690;9.562;2023-02-28T15:21:34;4.90;83.00
48019;DHT22;33786;48.690;9.562;2023-02-28T15:26:42;5.00;82.90
48019;DHT22;33786;48.690;9.562;2023-02-28T15:29:17;4.90;83.30
48019;DHT22;33786;48.690;9.562;2023-02-28T15:31:47;4.80;83.50
48019;DHT22;33786;48.690;9.562;2023-02-28T15:34:36;4.90;83.70
48019;DHT22;33786;48.690;9.562;2023-02-28T15:39:53;4.60;83.90
48019;DHT22;33786;48.690;9.562;2023-02-28T15:42:21;4.50;83.90
48019;DHT22;33786;48.690;9.562;2023-02-28T15:44:48;4.40;84.40
48019;DHT22;33786;48.690;9.562;2023-02-28T15:47:19;4.50;84.60
48019;DHT22;33786;48.690;9.562;2023-02-28T15:49:51;4.50;84.20
48019;DHT22;33786;48.690;9.562;2023-02-28T15:52:19;4.40;83.80
48019;DHT22;33786;48.690;9.562;2023-02-28T15:54:46;4.20;84.00
48019;DHT22;33786;48.690;9.562;2023-02-28T15:57:27;4.20;84.70
48019;DHT22;33786;48.690;9.562;2023-02-28T15:59:55;4.10;84.40
48019;DHT22;33786;48.690;9.562;2023-02-28T16:02:29;4.10;84.80
48019;DHT22;33786;48.690;9.562;2023-02-28T16:07:34;4.10;84.90
48019;DHT22;33786;48.690;9.562;2023-02-28T16:10:02;4.00;84.60
48019;DHT22;33786;48.690;9.562;2023-02-28T16:12:29;4.00;85.20
48019;DHT22;33786;48.690;9.562;2023-02-28T16:14:58;4.10;85.60
48019;DHT22;33786;48.690;9.562;2023-02-28T16:17:26;4.10;85.30
48019;DHT22;33786;48.690;9.562;2023-02-28T16:19:54;4.00;85.60
48019;DHT22;33786;48.690;9.562;2023-02-28T16:22:21;4.00;85.30
48019;DHT22;33786;48.690;9.562;2023-02-28T16:24:48;3.90;85.80
48019;DHT22;33786;48.690;9.562;2023-02-28T16:27:29;3.90;86.00
48019;DHT22;33786;48.690;9.562;2023-02-28T16:29:56;3.80;86.10
48019;DHT22;33786;48.690;9.562;2023-02-28T16:32:23;3.80;86.40
48019;DHT22;33786;48.690;9.562;2023-02-28T16:34:50;3.70;86.70
48019;DHT22;33786;48.690;9.562;2023-02-28T16:37:17;3.70;86.90
48019;DHT22;33786;48.690;9.562;2023-02-28T16:39:44;3.70;87.00
48019;DHT22;33786;48.690;9.562;2023-02-28T16:42:15;3.50;87.40
48019;DHT22;33786;48.690;9.562;2023-02-28T16:44:42;3.50;87.40
48019;DHT22;33786;48.690;9.562;2023-02-28T16:47:09;3.50;87.70
48019;DHT22;33786;48.690;9.562;2023-02-28T16:49:36;3.40;87.90
48019;DHT22;33786;48.690;9.562;2023-02-28T16:52:03;3.40;87.90
48019;DHT22;33786;48.690;9.562;2023-02-28T16:54:31;3.30;88.20
48019;DHT22;33786;48.690;9.562;2023-02-28T16:56:57;3.30;88.30
48019;DHT22;33786;48.690;9.562;2023-02-28T16:59:24;3.30;88.70
48019;DHT22;33786;48.690;9.562;2023-02-28T17:01:53;3.20;89.00
48019;DHT22;33786;48.690;9.562;2023-02-28T17:04:20;3.10;88.90
48019;DHT22;33786;48.690;9.562;2023-02-28T17:06:47;3.10;89.30
48019;DHT22;33786;48.690;9.562;2023-02-28T17:09:15;3.00;89.20
48019;DHT22;33786;48.690;9.562;2023-02-28T17:11:43;3.00;89.40
48019;DHT22;33786;48.690;9.562;2023-02-28T17:14:10;2.90;89.60
48019;DHT22;33786;48.690;9.562;2023-02-28T17:16:37;2.90;89.90
48019;DHT22;33786;48.690;9.562;2023-02-28T17:19:12;2.90;90.00
48019;DHT22;33786;48.690;9.562;2023-02-28T17:21:40;2.80;90.10
48019;DHT22;33786;48.690;9.562;2023-02-28T17:24:09;2.70;90.50
48019;DHT22;33786;48.690;9.562;2023-02-28T17:26:44;2.60;90.30
48019;DHT22;33786;48.690;9.562;2023-02-28T17:29:15;2.60;90.40
48019;DHT22;33786;48.690;9.562;2023-02-28T17:31:42;2.60;90.40
48019;DHT22;33786;48.690;9.562;2023-02-28T17:34:09;2.50;90.50
48019;DHT22;33786;48.690;9.562;2023-02-28T17:36:36;2.50;90.60
48019;DHT22;33786;48.690;9.562;2023-02-28T17:39:04;2.50;90.70
48019;DHT22;33786;48.690;9.562;2023-02-28T17:41:35;2.50;90.70
48019;DHT22;33786;48.690;9.562;2023-02-28T17:44:01;2.40;90.80
48019;DHT22;33786;48.690;9.562;2023-02-28T17:46:28;2.40;91.10
48019;DHT22;33786;48.690;9.562;2023-02-28T17:48:55;2.30;91.00
48019;DHT22;33786;48.690;9.562;2023-02-28T17:51:23;2.30;91.10
48019;DHT22;33786;48.690;9.562;2023-02-28T17:53:50;2.20;91.20
48019;DHT22;33786;48.690;9.562;2023-02-28T17:56:24;2.20;91.30
48019;DHT22;33786;48.690;9.562;2023-02-28T17:58:52;2.20;91.40
48019;DHT22;33786;48.690;9.562;2023-02-28T18:01:19;2.20;91.40
48019;DHT22;33786;48.690;9.562;2023-02-28T18:03:47;2.10;91.60
48019;DHT22;33786;48.690;9.562;2023-02-28T18:08:47;2.00;91.70
48019;DHT22;33786;48.690;9.562;2023-02-28T18:11:13;2.00;91.70
48019;DHT22;33786;48.690;9.562;2023-02-28T18:13:47;1.90;91.90
48019;DHT22;33786;48.690;9.562;2023-02-28T18:16:14;2.00;92.00
48019;DHT22;33786;48.690;9.562;2023-02-28T18:18:41;1.90;92.10
48019;DHT22;33786;48.690;9.562;2023-02-28T18:21:09;1.80;92.10
48019;DHT22;33786;48.690;9.562;2023-02-28T18:23:36;1.80;92.20
48019;DHT22;33786;48.690;9.562;2023-02-28T18:26:06;1.90;92.30
48019;DHT22;33786;48.690;9.562;2023-02-28T18:28:33;1.80;92.30
48019;DHT22;33786;48.690;9.562;2023-02-28T18:31:08;1.80;92.40
48019;DHT22;33786;48.690;9.562;2023-02-28T18:33:35;1.80;92.50